Flugplatz Hüttenbusch (EDXU)

Hier findest Du alle Informationen zum Flugplatz Hüttenbusch (EDXU).

Informationen für Piloten zum Flugplatz Hüttenbusch

Hier findest Du alle relevanten Informationen, die Du als Pilot benötigst, um Hüttenbusch anzufliegen.

Flugplatz: Hüttenbusch ICAO-Code: EDXU
Frequenz Turm: 122,850 Mhz GAFOR Gebiet: 5
Frequenz Ground: 122,850 Mhz Mogas: ja
Platzrunde: N 1000 ft Landegebühr: -
Platzhöhe: - Sunrise: 02:58 Uhr UTC
Pisten: 09/27 - 450 m x 30 m, GRAS Sunset: 19:57 Uhr UTC

Mitglieder, die in Hüttenbusch fliegen

Flugwetter am Flugplatz Hüttenbusch

Die METAR Information stammen aus EDDW (28.65 km entfernt).

METAR Code:
2022/06/29 13:50
EDDW 291350Z AUTO 12009KT 080V170 CAVOK 28/12 Q1014 NOSIG

Temperatur: 19,1 °C Niederschlag: - Wind: 7,0 kt (max.: 16,7 kt in Böen)
Temperatur (min.): 17,8 °C Luftdruck: 1013 hPa Windrichtung: 108 °
Temperatur (max.): 20,9 °C Luftfeuchtigkeit: 77 % Bewölkung: 3/8

Flugschulen am Flugplatz Hüttenbusch

Am Flugplatz Hüttenbusch gibt es leider keine Flugschule.

Benachbarte Flugplätze und Flugschulen

Es gibt 14 weitere Flugplätze in einem Umkreis von 50 km um den Flugplatz Hüttenbusch.

Jetzt anmelden

Passwort vergessen

Umfrage Archiv

Sendet Ihr ADS-B und/oder FLARM?

Ja
83.1 %
Nein
16.9 %
Stimmen: 177 | Diskussion
Anzeige: Roland Aircraft
Statistik Alle Mitglieder

Aktuell sind 50 Besucher online, davon 1 Mitglied und 49 Gäste.


Mitglieder online:
Maraio 

Anzeige: ULPower Aero Engines Anzeige: Pocket FMS